Time;durP1;ratioP1;P1;durP2;ratioP2;P2;SDS_P1;SDS_P2;PMS_P1;PMS_P2;Temp;Humidity;BMP_temperature;BMP_pressure;BME280_temperature;BME280_humidity;BME280_pressure;Samples;Min_cycle;Max_cycle;Signal;HPM_P1;HPM_P2
2024/01/23 00:00:26;;;;;;;21.52;4.20;;;7.30;99.90;;;;;;5066850;28;20021;-47
2024/01/23 00:02:52;;;;;;;30.88;4.88;;;7.40;99.90;;;;;;5066767;28;20100;-49
2024/01/23 00:05:18;;;;;;;20.20;3.97;;;7.50;99.90;;;;;;5066546;28;20186;-49
2024/01/23 00:07:43;;;;;;;20.73;3.35;;;7.40;99.90;;;;;;5065917;28;20078;-48
2024/01/23 00:10:09;;;;;;;20.50;3.53;;;7.40;99.90;;;;;;5066790;28;20211;-48
2024/01/23 00:12:35;;;;;;;23.52;4.28;;;7.50;99.90;;;;;;5066825;28;20033;-49
2024/01/23 00:15:00;;;;;;;23.75;5.00;;;7.50;99.90;;;;;;5066701;28;20025;-49
2024/01/23 00:17:26;;;;;;;22.58;4.82;;;7.40;99.90;;;;;;5066548;28;20040;-47
2024/01/23 00:19:53;;;;;;;27.20;5.15;;;7.40;99.90;;;;;;5066367;28;20029;-50
2024/01/23 00:22:19;;;;;;;30.65;4.93;;;7.40;99.90;;;;;;5066420;28;20189;-46
2024/01/23 00:24:44;;;;;;;28.13;4.75;;;7.40;99.90;;;;;;5066406;28;20057;-49
2024/01/23 00:27:10;;;;;;;27.80;5.07;;;7.30;99.90;;;;;;5065991;28;20235;-49
2024/01/23 00:29:36;;;;;;;34.60;5.75;;;7.30;99.90;;;;;;5066310;28;20017;-49
2024/01/23 00:32:02;;;;;;;27.38;5.60;;;7.30;99.90;;;;;;5065202;28;20053;-46
2024/01/23 00:34:27;;;;;;;19.17;4.82;;;7.30;99.90;;;;;;5066463;28;20114;-48
2024/01/23 00:36:53;;;;;;;25.98;4.35;;;7.40;99.90;;;;;;5065829;28;20207;-46
2024/01/23 00:39:19;;;;;;;25.38;4.22;;;7.30;99.90;;;;;;5066345;28;20279;-47
2024/01/23 00:41:45;;;;;;;23.08;4.47;;;7.30;99.90;;;;;;5066087;28;20044;-46
2024/01/23 00:44:10;;;;;;;32.55;5.63;;;7.30;99.90;;;;;;5065296;28;20059;-46
2024/01/23 00:46:36;;;;;;;21.88;3.72;;;7.30;99.90;;;;;;5065010;28;20033;-48
2024/01/23 00:49:02;;;;;;;14.07;3.33;;;7.20;99.90;;;;;;5064918;28;20037;-46
2024/01/23 00:51:31;;;;;;;21.08;4.35;;;7.20;99.90;;;;;;5065092;28;20021;-46
2024/01/23 00:53:56;;;;;;;28.20;3.80;;;7.20;99.90;;;;;;5065814;28;20086;-49
2024/01/23 00:56:22;;;;;;;21.55;4.35;;;7.30;99.90;;;;;;5066081;28;20036;-48
2024/01/23 00:58:48;;;;;;;28.40;5.38;;;7.20;99.90;;;;;;5065966;28;20275;-47
2024/01/23 01:01:13;;;;;;;24.75;4.53;;;7.20;99.90;;;;;;5065932;28;20063;-49
2024/01/23 01:03:39;;;;;;;24.60;3.85;;;7.20;99.90;;;;;;5065704;28;20098;-46
2024/01/23 01:06:05;;;;;;;29.85;4.78;;;7.30;99.90;;;;;;5064661;28;20043;-49
2024/01/23 01:08:30;;;;;;;27.15;5.22;;;7.30;99.90;;;;;;5065341;28;20025;-47
2024/01/23 01:10:56;;;;;;;24.30;4.22;;;7.20;99.90;;;;;;5065759;28;20037;-47
2024/01/23 01:13:22;;;;;;;21.23;4.93;;;7.20;99.90;;;;;;5065659;28;20033;-47
2024/01/23 01:15:48;;;;;;;21.02;3.38;;;7.20;99.90;;;;;;5065533;28;20068;-46
2024/01/23 01:18:13;;;;;;;24.92;3.80;;;7.20;99.90;;;;;;5065579;28;20033;-46
2024/01/23 01:20:39;;;;;;;27.80;4.43;;;7.20;99.90;;;;;;5065619;28;20028;-47
2024/01/23 01:23:05;;;;;;;27.05;4.60;;;7.20;99.90;;;;;;5065634;28;20182;-53
2024/01/23 01:25:30;;;;;;;27.73;5.00;;;7.10;99.90;;;;;;5065483;28;20037;-46
2024/01/23 01:27:56;;;;;;;24.13;4.25;;;7.10;99.90;;;;;;5065370;28;20049;-49
2024/01/23 01:30:26;;;;;;;19.35;4.53;;;7.10;99.90;;;;;;5065731;28;20040;-48
2024/01/23 01:32:52;;;;;;;17.30;3.50;;;7.10;99.90;;;;;;5065588;28;20036;-48
2024/01/23 01:35:18;;;;;;;29.38;5.35;;;7.10;99.90;;;;;;5065434;28;20182;-49
2024/01/23 01:37:43;;;;;;;30.63;4.82;;;7.10;99.90;;;;;;5065495;28;20021;-48
2024/01/23 01:40:10;;;;;;;23.45;4.65;;;7.10;99.90;;;;;;5065319;28;20079;-46
2024/01/23 01:42:36;;;;;;;29.27;5.10;;;7.10;99.90;;;;;;5065392;28;20052;-48
2024/01/23 01:45:03;;;;;;;26.38;4.03;;;7.10;99.90;;;;;;5064084;28;20035;-46
2024/01/23 01:47:29;;;;;;;22.35;4.20;;;7.00;99.90;;;;;;5065151;28;20028;-46
2024/01/23 01:49:54;;;;;;;27.35;4.35;;;7.00;99.90;;;;;;5064417;28;20025;-45
2024/01/23 01:52:20;;;;;;;34.60;5.03;;;7.10;99.90;;;;;;5064322;28;20092;-47
2024/01/23 01:54:46;;;;;;;19.75;3.55;;;7.10;99.90;;;;;;5064375;28;20041;-46
2024/01/23 01:57:13;;;;;;;31.27;4.30;;;7.10;99.90;;;;;;5068246;28;20055;-46
2024/01/23 01:59:38;;;;;;;32.65;5.03;;;7.00;99.90;;;;;;5069200;28;20033;-46
2024/01/23 02:02:07;;;;;;;22.25;3.65;;;7.00;99.90;;;;;;5069049;28;20180;-46
2024/01/23 02:04:32;;;;;;;29.02;4.32;;;7.00;99.90;;;;;;5069157;28;20044;-47
2024/01/23 02:06:58;;;;;;;26.08;3.97;;;7.00;99.90;;;;;;5068014;28;20291;-46
2024/01/23 02:09:24;;;;;;;24.00;3.70;;;7.00;99.90;;;;;;5069007;28;20047;-46
2024/01/23 02:12:05;;;;;;;25.63;4.72;;;7.00;99.90;;;;;;5069179;28;20024;-46
2024/01/23 02:14:30;;;;;;;23.85;4.53;;;7.00;99.90;;;;;;5068949;28;20037;-46
2024/01/23 02:16:56;;;;;;;33.55;5.93;;;7.00;99.90;;;;;;5068287;28;20334;-46
2024/01/23 02:19:22;;;;;;;24.88;3.75;;;7.00;99.90;;;;;;5068582;28;20040;-45
2024/01/23 02:21:47;;;;;;;26.88;4.45;;;7.00;99.90;;;;;;5068757;28;20048;-48
2024/01/23 02:24:13;;;;;;;29.73;4.70;;;7.00;99.90;;;;;;5068576;28;20298;-49
2024/01/23 02:26:39;;;;;;;31.48;5.50;;;7.00;99.90;;;;;;5067743;28;20083;-48
2024/01/23 02:29:04;;;;;;;25.42;4.13;;;7.00;99.90;;;;;;5068166;28;20370;-46
2024/01/23 02:31:30;;;;;;;23.40;4.07;;;7.10;99.90;;;;;;5068330;28;20025;-48
2024/01/23 02:33:56;;;;;;;25.00;4.47;;;7.10;99.90;;;;;;5068723;28;20079;-48
2024/01/23 02:36:21;;;;;;;25.38;4.45;;;7.10;99.90;;;;;;5068602;28;20040;-48
2024/01/23 02:38:47;;;;;;;19.73;3.60;;;7.10;99.90;;;;;;5068510;28;20312;-46
2024/01/23 02:41:12;;;;;;;29.58;4.53;;;7.10;99.90;;;;;;5068440;28;20376;-47
2024/01/23 02:43:38;;;;;;;31.63;4.78;;;7.20;99.90;;;;;;5068106;28;20191;-49
2024/01/23 02:46:04;;;;;;;23.73;4.22;;;7.20;99.90;;;;;;5067296;28;20013;-49
2024/01/23 02:48:29;;;;;;;29.08;3.67;;;7.20;99.90;;;;;;5068739;28;20029;-48
2024/01/23 02:50:55;;;;;;;22.02;3.67;;;7.20;99.90;;;;;;5068293;28;20096;-46
2024/01/23 02:53:21;;;;;;;22.23;3.92;;;7.20;99.90;;;;;;5068183;28;20029;-48
2024/01/23 02:55:46;;;;;;;29.08;4.55;;;7.30;99.90;;;;;;5068344;28;20033;-48
2024/01/23 02:58:12;;;;;;;22.10;3.60;;;7.30;99.90;;;;;;5068339;28;20281;-46
2024/01/23 03:00:39;;;;;;;18.98;3.20;;;7.30;99.90;;;;;;5067107;28;20021;-46
2024/01/23 03:03:06;;;;;;;23.90;3.70;;;7.40;99.90;;;;;;5067602;28;20032;-46
2024/01/23 03:05:32;;;;;;;17.63;3.70;;;7.40;99.90;;;;;;5067803;28;20276;-45
2024/01/23 03:07:58;;;;;;;17.17;3.65;;;7.40;99.90;;;;;;5066239;28;20046;-46
2024/01/23 03:10:23;;;;;;;18.02;3.58;;;7.40;99.90;;;;;;5067988;28;20029;-46
2024/01/23 03:12:49;;;;;;;25.00;3.88;;;7.40;99.90;;;;;;5067973;28;20025;-45
2024/01/23 03:15:15;;;;;;;24.30;3.38;;;7.40;99.90;;;;;;5067583;28;20020;-45
2024/01/23 03:17:40;;;;;;;23.48;3.90;;;7.40;99.90;;;;;;5067541;28;20033;-45
2024/01/23 03:20:07;;;;;;;24.65;4.85;;;7.40;99.90;;;;;;5067601;28;20020;-46
2024/01/23 03:22:33;;;;;;;25.77;4.18;;;7.40;99.90;;;;;;5067932;28;20145;-46
2024/01/23 03:24:59;;;;;;;30.00;4.05;;;7.40;99.90;;;;;;5066444;28;20103;-46
2024/01/23 03:27:25;;;;;;;20.58;3.75;;;7.40;99.90;;;;;;5066676;28;20024;-46
2024/01/23 03:29:51;;;;;;;26.02;3.28;;;7.40;99.90;;;;;;5067396;28;20049;-46
2024/01/23 03:32:17;;;;;;;21.00;4.07;;;7.40;99.90;;;;;;5067677;28;20214;-47
2024/01/23 03:34:43;;;;;;;17.95;3.88;;;7.50;99.90;;;;;;5066503;28;20029;-46
2024/01/23 03:37:08;;;;;;;24.88;4.15;;;7.50;99.90;;;;;;5067536;28;20052;-46
2024/01/23 03:39:34;;;;;;;18.20;3.13;;;7.50;99.90;;;;;;5067307;28;20108;-48
2024/01/23 03:42:00;;;;;;;21.40;4.03;;;7.50;99.90;;;;;;5067175;28;20025;-45
2024/01/23 03:44:26;;;;;;;23.70;3.63;;;7.60;99.90;;;;;;5067190;28;20025;-46
2024/01/23 03:46:52;;;;;;;26.15;3.83;;;7.60;99.90;;;;;;5067259;28;20039;-46
2024/01/23 03:49:18;;;;;;;24.65;3.35;;;7.60;99.90;;;;;;5067084;28;20151;-46
2024/01/23 03:51:44;;;;;;;26.88;4.05;;;7.60;99.90;;;;;;5067190;28;20031;-46
2024/01/23 03:54:10;;;;;;;20.90;3.47;;;7.70;99.90;;;;;;5067130;28;20072;-48
2024/01/23 03:56:36;;;;;;;22.75;3.20;;;7.70;99.90;;;;;;5067088;28;20024;-49
2024/01/23 03:59:01;;;;;;;21.75;3.42;;;7.70;99.90;;;;;;5067086;28;20056;-46
2024/01/23 04:01:27;;;;;;;21.02;3.63;;;7.80;99.90;;;;;;5066675;28;20036;-47
2024/01/23 04:03:53;;;;;;;17.42;3.42;;;7.80;99.90;;;;;;5066444;28;20056;-48
2024/01/23 04:06:19;;;;;;;23.02;3.67;;;7.90;99.90;;;;;;5066834;28;20203;-46
2024/01/23 04:08:44;;;;;;;23.75;4.07;;;7.90;99.90;;;;;;5066806;28;20087;-46
2024/01/23 04:11:10;;;;;;;18.75;2.88;;;7.90;99.90;;;;;;5065512;28;20083;-45
2024/01/23 04:13:36;;;;;;;19.42;3.00;;;7.90;99.90;;;;;;5066701;28;20055;-46
2024/01/23 04:16:02;;;;;;;35.70;4.03;;;7.90;99.90;;;;;;5066234;28;20319;-45
2024/01/23 04:18:28;;;;;;;22.33;3.15;;;8.00;99.90;;;;;;5065026;28;20191;-45
2024/01/23 04:20:54;;;;;;;23.45;4.00;;;8.00;99.90;;;;;;5066237;28;20025;-46
2024/01/23 04:23:19;;;;;;;22.33;3.65;;;7.90;99.90;;;;;;5066102;28;20081;-47
2024/01/23 04:25:45;;;;;;;22.02;3.25;;;7.90;99.90;;;;;;5066426;28;20020;-46
2024/01/23 04:28:11;;;;;;;19.00;3.03;;;7.90;99.90;;;;;;5066373;28;20071;-45
2024/01/23 04:30:36;;;;;;;22.13;3.85;;;7.90;99.90;;;;;;5066429;28;20061;-47
2024/01/23 04:33:02;;;;;;;20.45;2.90;;;7.90;99.90;;;;;;5066404;28;20334;-45
2024/01/23 04:35:28;;;;;;;29.15;3.47;;;7.90;99.90;;;;;;5065949;28;20222;-46
2024/01/23 04:37:53;;;;;;;22.33;3.53;;;7.90;99.90;;;;;;5066239;28;20029;-45
2024/01/23 04:40:19;;;;;;;22.02;3.20;;;7.90;99.90;;;;;;5065086;28;20151;-47
2024/01/23 04:42:45;;;;;;;31.52;4.82;;;7.80;99.90;;;;;;5066157;28;20025;-47
2024/01/23 04:45:11;;;;;;;21.25;3.85;;;7.80;99.90;;;;;;5066194;28;20183;-46
2024/01/23 04:47:36;;;;;;;25.42;4.10;;;7.70;99.90;;;;;;5066016;28;20224;-46
2024/01/23 04:50:02;;;;;;;23.63;3.55;;;7.70;99.90;;;;;;5065933;28;20074;-47
2024/01/23 04:52:28;;;;;;;24.10;4.20;;;7.70;99.90;;;;;;5065124;28;20043;-48
2024/01/23 04:54:53;;;;;;;22.35;3.72;;;7.70;99.90;;;;;;5065634;28;20025;-47
2024/01/23 04:57:19;;;;;;;25.33;4.32;;;7.70;99.90;;;;;;5065843;28;20270;-49
2024/01/23 04:59:45;;;;;;;22.35;4.15;;;7.70;99.90;;;;;;5065913;28;20181;-49
2024/01/23 05:02:11;;;;;;;20.45;3.50;;;7.80;99.90;;;;;;5065896;28;20080;-48
2024/01/23 05:04:36;;;;;;;21.02;3.60;;;7.80;99.90;;;;;;5065860;28;20025;-48
2024/01/23 05:07:02;;;;;;;25.95;4.57;;;7.80;99.90;;;;;;5065758;28;20047;-49
2024/01/23 05:09:31;;;;;;;27.83;3.13;;;7.70;99.90;;;;;;5065711;28;20032;-49
2024/01/23 05:11:57;;;;;;;22.73;4.28;;;7.70;99.90;;;;;;5065818;28;20032;-49
2024/01/23 05:14:23;;;;;;;21.17;4.13;;;7.70;99.90;;;;;;5065621;28;20025;-46
2024/01/23 05:16:49;;;;;;;29.60;3.72;;;7.60;99.90;;;;;;5065128;28;20332;-47
2024/01/23 05:19:14;;;;;;;25.88;3.85;;;7.60;99.90;;;;;;5065789;28;20036;-46
2024/01/23 05:21:40;;;;;;;19.73;3.75;;;7.60;99.90;;;;;;5064493;28;20033;-46
2024/01/23 05:24:06;;;;;;;15.68;3.08;;;7.70;99.90;;;;;;5065671;28;20024;-46
2024/01/23 05:26:32;;;;;;;22.05;3.53;;;7.70;99.90;;;;;;5065293;28;20029;-47
2024/01/23 05:28:57;;;;;;;28.63;4.20;;;7.70;99.90;;;;;;5064519;28;20096;-46
2024/01/23 05:31:23;;;;;;;21.95;4.47;;;7.70;99.90;;;;;;5070333;28;20163;-49
2024/01/23 05:33:49;;;;;;;20.95;3.20;;;7.80;99.90;;;;;;5072231;28;20278;-47
2024/01/23 05:36:14;;;;;;;29.23;4.18;;;7.90;99.90;;;;;;5072163;28;20171;-46
2024/01/23 05:38:40;;;;;;;28.33;4.38;;;7.90;99.90;;;;;;5072192;28;20033;-47
2024/01/23 05:41:06;;;;;;;25.50;4.10;;;7.90;99.90;;;;;;5071689;28;20160;-47
2024/01/23 05:43:31;;;;;;;26.38;4.00;;;7.90;99.90;;;;;;5072006;28;20191;-46
2024/01/23 05:45:57;;;;;;;19.17;3.72;;;7.90;99.90;;;;;;5072076;28;20017;-46
2024/01/23 05:48:23;;;;;;;27.23;4.05;;;8.00;99.90;;;;;;5072185;28;20082;-47
2024/01/23 05:50:48;;;;;;;25.30;4.05;;;8.00;99.90;;;;;;5071902;28;20029;-47
2024/01/23 05:53:14;;;;;;;19.23;2.97;;;8.00;99.90;;;;;;5072132;28;20051;-46
2024/01/23 05:55:39;;;;;;;21.50;3.35;;;8.00;99.90;;;;;;5071676;28;20056;-46
2024/01/23 05:58:09;;;;;;;27.98;4.15;;;8.00;99.90;;;;;;5071858;28;20198;-46
2024/01/23 06:00:35;;;;;;;21.77;3.85;;;8.00;99.90;;;;;;5072044;28;20142;-46
2024/01/23 06:03:00;;;;;;;35.15;4.78;;;8.00;99.90;;;;;;5071952;28;20036;-48
2024/01/23 06:05:26;;;;;;;21.17;3.72;;;8.00;99.90;;;;;;5070694;28;20052;-47
2024/01/23 06:07:52;;;;;;;33.22;3.88;;;8.00;99.90;;;;;;5070802;28;20025;-47
2024/01/23 06:10:18;;;;;;;24.75;4.05;;;8.10;99.90;;;;;;5071499;28;20054;-47
2024/01/23 06:12:44;;;;;;;32.30;4.90;;;8.10;99.90;;;;;;5071418;28;20052;-47
2024/01/23 06:15:09;;;;;;;22.52;3.13;;;8.10;99.90;;;;;;5071751;28;20021;-47
2024/01/23 06:17:35;;;;;;;23.40;4.13;;;8.10;99.90;;;;;;5070686;28;20039;-48
2024/01/23 06:20:04;;;;;;;20.85;3.35;;;8.10;99.90;;;;;;5071821;28;20033;-47
2024/01/23 06:22:30;;;;;;;21.93;2.97;;;8.10;99.90;;;;;;5071721;28;20029;-47
2024/01/23 06:25:03;;;;;;;22.52;3.65;;;8.10;99.90;;;;;;5071726;28;20297;-47
2024/01/23 06:27:28;;;;;;;24.42;4.22;;;8.10;99.90;;;;;;5071781;28;20029;-47
2024/01/23 06:29:54;;;;;;;23.85;3.97;;;8.10;99.90;;;;;;5071707;28;20040;-48
2024/01/23 06:32:20;;;;;;;23.20;3.58;;;8.10;99.90;;;;;;5071700;28;20048;-47
2024/01/23 06:34:45;;;;;;;19.88;3.10;;;8.10;99.90;;;;;;5071711;28;20044;-48
2024/01/23 06:37:11;;;;;;;12.38;2.33;;;8.10;99.90;;;;;;5070593;28;20298;-48
2024/01/23 06:39:37;;;;;;;26.50;3.75;;;8.10;99.90;;;;;;5070527;28;20025;-48
2024/01/23 06:42:02;;;;;;;9.77;2.38;;;8.10;99.90;;;;;;5068874;28;20037;-48
2024/01/23 06:44:28;;;;;;;24.88;3.25;;;8.10;99.90;;;;;;5068334;28;20028;-48
2024/01/23 06:46:54;;;;;;;21.25;3.45;;;8.10;99.90;;;;;;5068406;28;20355;-45
2024/01/23 06:49:20;;;;;;;13.98;2.38;;;8.10;99.90;;;;;;5068005;28;20029;-48
2024/01/23 06:51:45;;;;;;;24.73;3.63;;;8.20;99.90;;;;;;5067994;28;20032;-48
2024/01/23 06:54:11;;;;;;;23.38;3.85;;;8.20;99.90;;;;;;5067286;28;20191;-50
2024/01/23 06:56:37;;;;;;;22.08;3.70;;;8.20;99.90;;;;;;5068241;28;20350;-50
2024/01/23 06:59:04;;;;;;;22.45;4.63;;;8.20;99.90;;;;;;5068086;28;20052;-49
2024/01/23 07:01:30;;;;;;;13.18;3.20;;;8.20;99.90;;;;;;5050778;28;20040;-49
2024/01/23 07:03:56;;;;;;;17.30;3.50;;;8.20;99.90;;;;;;5067598;28;20037;-49
2024/01/23 07:06:22;;;;;;;25.38;4.32;;;8.20;99.90;;;;;;5068038;28;20028;-49
2024/01/23 07:08:47;;;;;;;19.95;4.90;;;8.20;99.90;;;;;;5067165;28;20025;-49
2024/01/23 07:11:13;;;;;;;20.27;4.07;;;8.20;99.90;;;;;;5068013;28;20100;-49
2024/01/23 07:13:39;;;;;;;14.52;3.05;;;8.20;99.90;;;;;;5067841;28;20328;-49
2024/01/23 07:16:05;;;;;;;16.77;3.78;;;8.20;99.90;;;;;;5067593;28;20049;-47
2024/01/23 07:18:31;;;;;;;13.27;2.90;;;8.30;99.90;;;;;;5066574;28;20187;-47
2024/01/23 07:20:57;;;;;;;16.02;2.20;;;8.30;99.90;;;;;;5067676;28;20047;-46
2024/01/23 07:23:22;;;;;;;14.32;2.33;;;8.30;99.90;;;;;;5067327;28;20067;-49
2024/01/23 07:25:48;;;;;;;17.50;2.45;;;8.30;99.90;;;;;;5067641;28;20025;-49
2024/01/23 07:28:14;;;;;;;12.80;2.33;;;8.30;99.90;;;;;;5067451;28;20050;-50
2024/01/23 07:30:39;;;;;;;9.88;1.95;;;8.30;99.90;;;;;;5067589;28;20028;-49
2024/01/23 07:33:05;;;;;;;15.95;2.40;;;8.30;99.90;;;;;;5066231;28;20100;-46
2024/01/23 07:35:31;;;;;;;14.60;2.40;;;8.40;99.90;;;;;;5067267;28;20306;-48
2024/01/23 07:37:57;;;;;;;12.68;2.28;;;8.40;99.90;;;;;;5067223;28;20063;-46
2024/01/23 07:40:22;;;;;;;12.32;2.13;;;8.40;99.90;;;;;;5066170;28;20233;-45
2024/01/23 07:42:48;;;;;;;13.57;2.00;;;8.40;99.90;;;;;;5066352;28;20037;-46
2024/01/23 07:45:14;;;;;;;10.20;2.13;;;8.40;99.90;;;;;;5066128;28;20025;-46
2024/01/23 07:47:39;;;;;;;5.50;1.52;;;8.40;99.90;;;;;;5067103;28;20354;-46
2024/01/23 07:50:07;;;;;;;8.65;2.22;;;8.40;99.90;;;;;;5065614;28;20096;-47
2024/01/23 07:52:34;;;;;;;10.38;2.38;;;8.40;99.90;;;;;;5066741;28;20298;-47
2024/01/23 07:55:00;;;;;;;9.20;1.60;;;8.50;99.90;;;;;;5065875;28;20168;-48
2024/01/23 07:57:25;;;;;;;10.63;1.95;;;8.50;99.90;;;;;;5066686;28;20029;-47
2024/01/23 07:59:51;;;;;;;6.45;1.70;;;8.60;99.90;;;;;;5066778;28;20025;-48
2024/01/23 08:02:17;;;;;;;11.02;1.80;;;8.60;99.90;;;;;;5066979;28;20029;-46
2024/01/23 08:04:42;;;;;;;7.28;1.63;;;8.60;99.90;;;;;;5066394;28;20315;-46
2024/01/23 08:07:08;;;;;;;10.38;2.20;;;8.60;99.90;;;;;;5066175;28;20021;-46
2024/01/23 08:09:34;;;;;;;8.52;1.90;;;8.60;99.90;;;;;;5065666;28;20024;-48
2024/01/23 08:12:01;;;;;;;4.28;1.45;;;8.60;99.90;;;;;;5066591;28;20065;-47
2024/01/23 08:14:27;;;;;;;2.63;1.05;;;8.60;99.90;;;;;;5065579;28;20074;-46
2024/01/23 08:16:53;;;;;;;8.38;1.75;;;8.60;99.90;;;;;;5065994;28;20053;-49
2024/01/23 08:19:18;;;;;;;6.82;1.73;;;8.60;99.90;;;;;;5066111;28;20028;-47
2024/01/23 08:21:45;;;;;;;9.13;1.50;;;8.60;99.90;;;;;;5066097;28;20025;-49
2024/01/23 08:24:11;;;;;;;11.13;1.70;;;8.60;99.90;;;;;;5066202;28;20225;-49
2024/01/23 08:26:37;;;;;;;5.18;1.67;;;8.60;99.90;;;;;;5066151;28;20045;-48
2024/01/23 08:29:02;;;;;;;5.28;1.75;;;8.70;99.90;;;;;;5066199;28;20013;-49
2024/01/23 08:31:29;;;;;;;10.30;1.88;;;8.60;99.90;;;;;;5066134;28;20088;-49
2024/01/23 08:33:55;;;;;;;7.40;1.33;;;8.60;99.90;;;;;;5065910;28;20065;-49
2024/01/23 08:36:20;;;;;;;5.80;1.92;;;8.60;99.90;;;;;;5065235;28;20021;-48
2024/01/23 08:38:46;;;;;;;5.95;1.35;;;8.60;99.90;;;;;;5065095;28;20033;-49
2024/01/23 08:41:12;;;;;;;5.93;1.35;;;8.60;99.90;;;;;;5065990;28;20037;-47
2024/01/23 08:43:37;;;;;;;8.48;2.10;;;8.60;99.90;;;;;;5065377;28;20160;-48
2024/01/23 08:46:03;;;;;;;5.18;1.50;;;8.60;99.90;;;;;;5065726;28;20132;-45
2024/01/23 08:48:29;;;;;;;5.13;1.20;;;8.70;99.90;;;;;;5065804;28;20055;-48
2024/01/23 08:50:55;;;;;;;3.33;0.85;;;8.70;99.90;;;;;;5065898;28;20274;-47
2024/01/23 08:53:20;;;;;;;4.00;1.00;;;8.80;99.90;;;;;;5065625;28;20219;-46
2024/01/23 08:55:47;;;;;;;5.60;1.23;;;8.80;99.90;;;;;;5064912;28;20114;-46
2024/01/23 08:58:22;;;;;;;5.35;1.55;;;8.90;99.90;;;;;;5064713;28;20039;-46
2024/01/23 09:00:48;;;;;;;3.78;1.20;;;8.90;99.90;;;;;;5065785;28;20033;-46
2024/01/23 09:03:13;;;;;;;3.35;1.10;;;8.90;99.90;;;;;;5065707;28;20036;-45
2024/01/23 09:05:39;;;;;;;6.95;1.45;;;8.90;99.90;;;;;;5064889;28;20051;-46
2024/01/23 09:08:05;;;;;;;5.13;1.95;;;9.00;99.90;;;;;;5065373;28;20039;-46
2024/01/23 09:10:31;;;;;;;6.70;1.35;;;9.00;99.90;;;;;;5064224;28;20140;-49
2024/01/23 09:12:56;;;;;;;3.58;0.85;;;9.00;99.90;;;;;;5065419;28;20228;-46
2024/01/23 09:15:22;;;;;;;3.25;1.40;;;9.10;99.90;;;;;;5065131;28;20049;-48
2024/01/23 09:17:47;;;;;;;1.98;1.10;;;9.10;99.90;;;;;;5065650;28;20037;-47
2024/01/23 09:20:13;;;;;;;1.88;1.10;;;9.20;99.90;;;;;;5065594;28;20029;-46
2024/01/23 09:22:40;;;;;;;1.70;1.00;;;9.20;99.90;;;;;;5064508;28;20086;-46
2024/01/23 09:25:06;;;;;;;8.07;1.40;;;9.20;99.90;;;;;;5047632;28;20027;-50
2024/01/23 09:27:31;;;;;;;2.78;1.00;;;9.20;99.90;;;;;;5065404;28;20174;-45
2024/01/23 09:29:57;;;;;;;3.15;0.90;;;9.20;99.90;;;;;;5065382;28;20029;-49
2024/01/23 09:32:23;;;;;;;3.30;0.95;;;9.20;99.90;;;;;;5065298;28;20156;-46
2024/01/23 09:34:48;;;;;;;2.63;0.90;;;9.20;99.90;;;;;;5065383;28;20043;-48
2024/01/23 09:37:14;;;;;;;3.10;0.93;;;9.30;99.90;;;;;;5065440;28;20114;-47
2024/01/23 09:39:40;;;;;;;3.10;1.23;;;9.20;99.90;;;;;;5065030;28;20290;-46
2024/01/23 09:42:06;;;;;;;1.73;0.82;;;9.20;99.90;;;;;;5065242;28;20275;-46
2024/01/23 09:44:32;;;;;;;1.70;0.80;;;9.30;99.90;;;;;;5047617;28;20037;-49
2024/01/23 09:46:57;;;;;;;2.22;0.80;;;9.30;99.90;;;;;;5063876;28;20016;-46
2024/01/23 09:49:23;;;;;;;1.15;0.77;;;9.30;99.90;;;;;;5064251;28;20040;-46
2024/01/23 09:51:49;;;;;;;5.00;1.35;;;9.30;99.90;;;;;;5063843;28;20195;-47
2024/01/23 09:54:14;;;;;;;2.05;0.60;;;9.20;99.90;;;;;;5065085;28;20066;-47
2024/01/23 09:56:40;;;;;;;0.68;0.63;;;9.30;99.90;;;;;;5065188;28;20029;-45
2024/01/23 09:59:07;;;;;;;3.42;1.10;;;9.30;99.90;;;;;;5064018;28;20067;-46
2024/01/23 10:01:36;;;;;;;3.53;0.80;;;9.40;99.90;;;;;;5047397;28;20021;-47
2024/01/23 10:04:05;;;;;;;3.78;0.80;;;9.40;99.90;;;;;;5065017;28;20036;-48
2024/01/23 10:06:33;;;;;;;1.95;0.93;;;9.40;99.90;;;;;;5047666;28;20029;-47
2024/01/23 10:08:59;;;;;;;2.85;0.85;;;9.40;99.90;;;;;;5064966;28;20078;-47
2024/01/23 10:11:28;;;;;;;3.83;1.00;;;9.40;99.90;;;;;;5063709;28;20261;-47
2024/01/23 10:13:58;;;;;;;3.65;0.80;;;9.40;99.90;;;;;;5064824;28;20037;-49
2024/01/23 10:16:25;;;;;;;4.72;1.25;;;9.40;99.90;;;;;;5063712;28;20057;-49
2024/01/23 10:18:51;;;;;;;3.47;1.05;;;9.40;99.90;;;;;;5068195;28;20039;-46
2024/01/23 10:21:21;;;;;;;4.35;0.85;;;9.40;99.90;;;;;;5068404;28;20159;-50
2024/01/23 10:23:49;;;;;;;4.90;1.33;;;9.50;99.90;;;;;;5067518;28;20033;-50
2024/01/23 10:26:15;;;;;;;2.38;1.23;;;9.50;99.90;;;;;;5067482;28;20021;-47
2024/01/23 10:28:44;;;;;;;4.70;1.20;;;9.50;99.90;;;;;;5068705;28;20068;-46
2024/01/23 10:31:11;;;;;;;3.83;1.23;;;9.50;99.90;;;;;;5068559;28;20112;-47
2024/01/23 10:33:37;;;;;;;3.95;0.90;;;9.60;99.90;;;;;;5068221;28;20025;-48
2024/01/23 10:36:09;;;;;;;5.43;1.40;;;9.60;99.90;;;;;;5068312;28;20040;-50
2024/01/23 10:38:35;;;;;;;6.53;1.45;;;9.80;99.90;;;;;;5068570;28;20025;-50
2024/01/23 10:41:05;;;;;;;14.63;2.25;;;10.40;99.90;;;;;;5068346;28;20079;-47
2024/01/23 10:43:31;;;;;;;12.88;2.45;;;10.70;99.90;;;;;;5067658;28;20037;-48
2024/01/23 10:46:03;;;;;;;16.98;2.25;;;10.90;99.90;;;;;;5067890;28;20397;-49
2024/01/23 10:48:30;;;;;;;6.25;1.50;;;10.90;99.90;;;;;;5067238;28;20035;-50
2024/01/23 10:51:00;;;;;;;17.58;2.60;;;11.00;99.90;;;;;;5050864;28;20055;-51
2024/01/23 10:53:32;;;;;;;10.25;1.90;;;11.00;99.90;;;;;;5067224;28;20028;-50
2024/01/23 10:55:57;;;;;;;10.57;1.75;;;11.10;99.90;;;;;;5067910;28;20033;-50
2024/01/23 10:58:35;;;;;;;9.00;1.58;;;11.10;99.90;;;;;;5067001;28;20025;-50
2024/01/23 11:01:01;;;;;;;10.20;2.05;;;11.20;99.90;;;;;;5068099;28;20033;-48
2024/01/23 11:03:26;;;;;;;8.48;1.67;;;11.20;99.90;;;;;;5066675;28;20044;-48
2024/01/23 11:06:01;;;;;;;7.45;2.17;;;11.30;99.90;;;;;;5067865;28;20021;-46
2024/01/23 11:08:30;;;;;;;12.85;2.13;;;11.20;99.90;;;;;;5066743;28;20029;-48
2024/01/23 11:11:20;;;;;;;4.75;1.83;;;11.30;99.90;;;;;;5066802;28;20031;-46
2024/01/23 11:13:59;;;;;;;12.73;3.33;;;11.30;99.90;;;;;;5066513;28;20057;-47
2024/01/23 11:16:24;;;;;;;9.73;2.67;;;11.40;99.90;;;;;;5051122;28;20059;-48
2024/01/23 11:18:55;;;;;;;13.73;3.20;;;11.40;99.90;;;;;;5066509;28;20053;-47
2024/01/23 11:21:23;;;;;;;11.63;2.22;;;11.50;99.90;;;;;;5067290;28;20032;-48
2024/01/23 11:23:58;;;;;;;4.40;1.83;;;11.50;99.90;;;;;;5067592;28;20021;-50
2024/01/23 11:26:26;;;;;;;11.05;3.65;;;11.60;99.90;;;;;;5066486;28;20044;-50
2024/01/23 11:28:53;;;;;;;14.00;3.10;;;11.60;99.90;;;;;;5049755;28;20279;-48
2024/01/23 11:31:22;;;;;;;13.15;5.85;;;11.60;99.90;;;;;;5067551;28;20031;-50
2024/01/23 11:33:49;;;;;;;7.03;1.98;;;11.60;99.90;;;;;;5067089;28;20032;-50
2024/01/23 11:36:24;;;;;;;8.07;2.05;;;11.70;99.90;;;;;;5049701;28;20053;-49
2024/01/23 11:38:56;;;;;;;31.60;10.77;;;11.70;99.90;;;;;;5067359;28;20052;-50
2024/01/23 11:41:23;;;;;;;9.80;3.03;;;11.70;99.90;;;;;;5067040;28;20048;-51
2024/01/23 11:43:55;;;;;;;39.47;16.92;;;11.70;99.90;;;;;;5066341;28;20016;-49
2024/01/23 11:46:22;;;;;;;15.90;3.40;;;11.70;99.90;;;;;;5050314;28;20078;-48
2024/01/23 11:48:48;;;;;;;41.85;15.35;;;11.80;99.90;;;;;;5049684;28;20074;-50
2024/01/23 11:51:14;;;;;;;22.05;7.95;;;11.80;99.90;;;;;;5067076;28;20049;-51
2024/01/23 11:53:41;;;;;;;8.80;3.38;;;11.80;99.90;;;;;;5065912;28;20033;-48
2024/01/23 11:56:06;;;;;;;11.13;2.80;;;11.80;99.90;;;;;;5066329;28;20031;-50
2024/01/23 11:58:32;;;;;;;18.23;2.80;;;11.80;99.90;;;;;;5065849;28;20048;-50
2024/01/23 12:00:58;;;;;;;17.20;4.03;;;11.80;99.90;;;;;;5066671;28;20040;-50
2024/01/23 12:03:24;;;;;;;74.95;29.85;;;11.80;99.90;;;;;;5065856;28;20290;-51
2024/01/23 12:05:53;;;;;;;32.53;11.82;;;11.80;99.90;;;;;;5066738;28;20035;-51
2024/01/23 12:08:18;;;;;;;26.45;12.52;;;11.80;99.90;;;;;;5065535;28;20028;-47
2024/01/23 12:10:44;;;;;;;27.25;4.20;;;11.70;99.90;;;;;;5065466;28;20105;-47
2024/01/23 12:13:10;;;;;;;9.00;3.35;;;11.70;99.90;;;;;;5065421;28;20106;-47
2024/01/23 12:15:35;;;;;;;23.67;3.60;;;11.70;99.90;;;;;;5065282;28;20045;-47
2024/01/23 12:18:01;;;;;;;17.27;3.25;;;11.80;99.90;;;;;;5066187;28;20028;-49
2024/01/23 12:20:27;;;;;;;15.60;2.97;;;11.80;99.90;;;;;;5066237;28;20029;-47
2024/01/23 12:22:52;;;;;;;17.65;4.75;;;11.80;99.90;;;;;;5066196;28;20164;-49
2024/01/23 12:25:18;;;;;;;12.90;3.60;;;11.70;99.90;;;;;;5065432;28;20088;-49
2024/01/23 12:27:44;;;;;;;14.32;3.20;;;11.80;99.90;;;;;;5065394;28;20036;-51
2024/01/23 12:30:14;;;;;;;22.35;4.72;;;11.80;99.90;;;;;;5066133;28;20036;-48
2024/01/23 12:32:39;;;;;;;18.08;3.72;;;11.70;99.90;;;;;;5065149;28;20096;-50
2024/01/23 12:35:10;;;;;;;10.50;3.03;;;11.80;99.90;;;;;;5066302;28;20029;-50
2024/01/23 12:37:38;;;;;;;19.38;3.55;;;11.80;99.90;;;;;;5065112;28;20186;-51
2024/01/23 12:40:09;;;;;;;13.25;3.28;;;11.80;99.90;;;;;;5064466;28;20044;-50
2024/01/23 12:42:41;;;;;;;15.43;4.03;;;11.80;99.90;;;;;;5064894;28;20024;-51